createdAt,value
2023-01-12T00:01:09.118Z,100.00
2023-01-12T00:04:01.080Z,100.00
2023-01-12T00:06:48.175Z,100.00
2023-01-12T00:09:35.060Z,100.00
2023-01-12T00:12:21.332Z,100.00
2023-01-12T00:15:04.734Z,100.00
2023-01-12T00:17:44.239Z,100.00
2023-01-12T00:20:24.261Z,100.00
2023-01-12T00:23:05.788Z,100.00
2023-01-12T00:25:53.012Z,100.00
2023-01-12T00:28:41.968Z,100.00
2023-01-12T00:31:28.851Z,100.00
2023-01-12T00:34:20.543Z,100.00
2023-01-12T00:37:22.472Z,100.00
2023-01-12T00:40:26.413Z,100.00
2023-01-12T00:43:34.415Z,100.00
2023-01-12T00:46:24.051Z,100.00
2023-01-12T00:49:16.884Z,100.00
2023-01-12T00:51:59.344Z,100.00
2023-01-12T00:54:39.927Z,100.00
2023-01-12T00:57:21.957Z,100.00
2023-01-12T01:00:05.985Z,100.00
2023-01-12T01:02:44.168Z,100.00
2023-01-12T01:05:20.796Z,100.00
2023-01-12T01:07:57.442Z,100.00
2023-01-12T01:10:36.228Z,100.00
2023-01-12T01:13:11.725Z,100.00
2023-01-12T01:15:46.945Z,100.00
2023-01-12T01:18:20.288Z,100.00
2023-01-12T01:20:54.254Z,100.00
2023-01-12T01:23:30.855Z,100.00
2023-01-12T01:26:07.074Z,100.00
2023-01-12T01:28:39.700Z,100.00
2023-01-12T01:31:15.005Z,100.00
2023-01-12T01:33:46.934Z,100.00
2023-01-12T01:36:20.121Z,100.00
2023-01-12T01:38:56.489Z,100.00
2023-01-12T01:41:32.086Z,100.00
2023-01-12T01:44:06.747Z,100.00
2023-01-12T01:46:56.673Z,100.00
2023-01-12T01:49:52.891Z,100.00
2023-01-12T01:52:42.193Z,100.00
2023-01-12T01:55:26.478Z,100.00
2023-01-12T01:58:19.767Z,100.00
2023-01-12T02:01:01.586Z,100.00
2023-01-12T02:03:39.223Z,100.00
2023-01-12T02:06:15.527Z,100.00
2023-01-12T02:09:18.849Z,100.00
2023-01-12T02:12:12.835Z,100.00
2023-01-12T02:15:08.289Z,100.00
2023-01-12T02:18:01.903Z,100.00
2023-01-12T02:20:48.930Z,100.00
2023-01-12T02:23:29.130Z,100.00
2023-01-12T02:26:31.906Z,100.00
2023-01-12T02:29:25.520Z,100.00
2023-01-12T02:36:18.396Z,100.00
2023-01-12T02:39:07.295Z,100.00
2023-01-12T02:42:22.616Z,100.00
2023-01-12T02:45:16.683Z,100.00
2023-01-12T02:47:52.330Z,100.00
2023-01-12T02:54:45.866Z,100.00
2023-01-12T02:57:18.593Z,100.00
2023-01-12T02:59:57.899Z,100.00
2023-01-12T03:02:30.424Z,100.00
2023-01-12T03:05:03.159Z,100.00
2023-01-12T03:07:50.383Z,100.00
2023-01-12T03:10:52.178Z,100.00
2023-01-12T03:13:27.368Z,100.00
2023-01-12T03:16:01.238Z,100.00
2023-01-12T03:19:01.272Z,100.00
2023-01-12T03:21:42.381Z,100.00
2023-01-12T03:24:32.364Z,100.00
2023-01-12T03:27:21.903Z,100.00
2023-01-12T03:30:02.516Z,100.00
2023-01-12T03:32:35.625Z,100.00
2023-01-12T03:35:10.277Z,100.00
2023-01-12T03:38:00.201Z,100.00
2023-01-12T03:40:42.552Z,100.00
2023-01-12T03:43:30.547Z,100.00
2023-01-12T03:46:16.761Z,100.00
2023-01-12T03:49:03.645Z,100.00
2023-01-12T03:51:49.344Z,100.00
2023-01-12T03:54:29.500Z,100.00
2023-01-12T03:57:12.469Z,100.00
2023-01-12T03:59:55.871Z,100.00
2023-01-12T04:02:29.189Z,100.00
2023-01-12T04:05:01.334Z,100.00
2023-01-12T04:07:34.620Z,100.00
2023-01-12T04:10:05.386Z,100.00
2023-01-12T04:12:35.786Z,100.00
2023-01-12T04:15:07.324Z,100.00
2023-01-12T04:17:38.694Z,100.00
2023-01-12T04:20:10.423Z,100.00
2023-01-12T04:22:46.810Z,100.00
2023-01-12T04:25:24.167Z,100.00
2023-01-12T04:27:57.380Z,100.00
2023-01-12T04:30:30.183Z,100.00
2023-01-12T04:33:07.351Z,100.00
2023-01-12T04:35:48.301Z,100.00
2023-01-12T04:38:28.380Z,100.00
2023-01-12T04:41:08.070Z,100.00
2023-01-12T04:43:49.664Z,100.00
2023-01-12T04:46:30.592Z,100.00
2023-01-12T04:49:13.977Z,100.00
2023-01-12T04:51:50.408Z,100.00
2023-01-12T04:54:28.345Z,100.00
2023-01-12T04:56:59.728Z,100.00
2023-01-12T04:59:30.467Z,100.00
2023-01-12T05:02:02.414Z,100.00
2023-01-12T05:04:33.168Z,100.00
2023-01-12T05:07:03.620Z,100.00
2023-01-12T05:09:57.747Z,100.00
2023-01-12T05:12:33.778Z,100.00
2023-01-12T05:15:13.971Z,100.00
2023-01-12T05:18:01.165Z,100.00
2023-01-12T05:20:43.525Z,100.00
2023-01-12T05:23:17.060Z,100.00
2023-01-12T05:25:53.431Z,100.00
2023-01-12T05:28:30.246Z,100.00
2023-01-12T05:31:08.457Z,100.00
2023-01-12T05:33:43.891Z,100.00
2023-01-12T05:36:19.637Z,100.00
2023-01-12T05:39:00.580Z,100.00
2023-01-12T05:42:02.284Z,100.00
2023-01-12T05:44:53.017Z,100.00
2023-01-12T05:47:55.980Z,100.00
2023-01-12T05:50:43.204Z,100.00
2023-01-12T05:53:26.790Z,100.00
2023-01-12T05:56:10.394Z,100.00
2023-01-12T05:59:02.568Z,100.00
2023-01-12T06:01:41.321Z,100.00
2023-01-12T06:04:17.359Z,100.00
2023-01-12T06:06:50.356Z,100.00
2023-01-12T06:09:34.161Z,100.00
2023-01-12T06:12:27.445Z,100.00
2023-01-12T06:14:59.315Z,100.00
2023-01-12T06:17:29.829Z,100.00
2023-01-12T06:20:01.015Z,100.00
2023-01-12T06:22:34.330Z,100.00
2023-01-12T06:25:07.501Z,100.00
2023-01-12T06:27:38.839Z,100.00
2023-01-12T06:30:13.431Z,100.00
2023-01-12T06:32:42.893Z,100.00
2023-01-12T06:35:19.149Z,100.00
2023-01-12T06:37:50.468Z,100.00
2023-01-12T06:40:23.642Z,100.00
2023-01-12T06:42:54.034Z,100.00
2023-01-12T06:45:24.607Z,100.00
2023-01-12T06:47:54.477Z,100.00
2023-01-12T06:50:27.356Z,100.00
2023-01-12T06:53:00.239Z,100.00
2023-01-12T06:55:30.561Z,100.00
2023-01-12T06:58:05.959Z,100.00
2023-01-12T07:04:58.592Z,100.00
2023-01-12T07:07:34.915Z,100.00
2023-01-12T07:10:10.887Z,100.00
2023-01-12T07:12:41.335Z,100.00
2023-01-12T07:15:13.069Z,100.00
2023-01-12T07:17:43.719Z,100.00
2023-01-12T07:42:58.499Z,100.00
2023-01-12T09:40:43.836Z,100.00
2023-01-12T10:59:21.643Z,96.42
2023-01-12T11:02:03.183Z,95.51
2023-01-12T11:04:39.145Z,94.50
2023-01-12T11:07:19.136Z,95.49
2023-01-12T12:00:59.265Z,90.38
2023-01-12T12:03:44.854Z,89.65
2023-01-12T12:06:22.470Z,89.78
2023-01-12T12:09:23.804Z,89.21
2023-01-12T12:12:00.992Z,89.81
2023-01-12T12:14:57.643Z,90.12
2023-01-12T12:17:47.824Z,89.24
2023-01-12T12:20:34.270Z,88.96
2023-01-12T12:23:36.804Z,90.07
2023-01-12T12:26:15.740Z,90.48
2023-01-12T12:29:27.366Z,89.63
2023-01-12T12:32:29.663Z,88.42
2023-01-12T12:35:12.839Z,87.12
2023-01-12T12:37:55.050Z,86.52
2023-01-12T12:41:05.832Z,87.12
2023-01-12T12:43:57.023Z,88.43
2023-01-12T12:46:57.402Z,87.62
2023-01-12T12:49:33.135Z,88.56
2023-01-12T12:52:02.836Z,88.15
2023-01-12T12:54:32.824Z,88.52
2023-01-12T12:57:01.569Z,88.96
2023-01-12T12:59:45.451Z,89.02
2023-01-12T13:02:57.505Z,88.51
2023-01-12T13:05:50.369Z,88.80
2023-01-12T13:11:14.262Z,89.03
2023-01-12T13:14:19.657Z,88.65
2023-01-12T13:18:35.694Z,86.95
2023-01-12T13:21:46.104Z,86.41
2023-01-12T13:24:34.860Z,84.47
2023-01-12T13:27:30.945Z,83.71
2023-01-12T13:30:36.683Z,82.21
2023-01-12T13:33:36.940Z,81.13
2023-01-12T13:36:11.789Z,80.69
2023-01-12T13:38:57.708Z,80.44
2023-01-12T13:42:54.183Z,81.15
2023-01-12T13:46:27.499Z,81.76
2023-01-12T13:49:34.233Z,82.22
2023-01-12T13:52:21.409Z,82.42
2023-01-12T13:55:07.194Z,82.71
2023-01-12T13:58:15.219Z,82.95
2023-01-12T14:00:57.140Z,83.40
2023-01-12T14:03:53.074Z,84.19
2023-01-12T14:06:40.324Z,83.79
2023-01-12T14:09:45.962Z,83.99
2023-01-12T14:12:42.371Z,83.62
2023-01-12T14:15:50.407Z,83.75
2023-01-12T14:18:24.667Z,84.15
2023-01-12T14:21:00.563Z,84.76
2023-01-12T14:23:34.932Z,84.46
2023-01-12T14:26:26.251Z,84.54
2023-01-12T14:33:33.064Z,85.86
2023-01-12T14:36:48.686Z,86.30
2023-01-12T14:39:34.172Z,86.94
2023-01-12T14:42:24.773Z,87.08
2023-01-12T14:45:14.778Z,87.51
2023-01-12T14:47:44.784Z,87.57
2023-01-12T14:50:21.071Z,87.63
2023-01-12T14:52:53.455Z,87.57
2023-01-12T14:55:25.291Z,87.82
2023-01-12T14:58:06.199Z,87.84
2023-01-12T15:00:41.129Z,87.89
2023-01-12T15:03:28.817Z,88.42
2023-01-12T15:06:05.682Z,88.72
2023-01-12T15:08:39.144Z,88.93
2023-01-12T15:11:19.910Z,89.13
2023-01-12T15:13:58.475Z,89.19
2023-01-12T15:17:04.663Z,89.49
2023-01-12T15:23:07.373Z,90.10
2023-01-12T15:25:50.620Z,90.25
2023-01-12T15:29:09.079Z,90.37
2023-01-12T15:31:56.510Z,90.71
2023-01-12T15:39:24.800Z,91.04
2023-01-12T15:51:28.170Z,91.73
2023-01-12T15:58:13.512Z,91.84
2023-01-12T16:10:24.938Z,92.59
2023-01-12T16:14:11.046Z,92.90
2023-01-12T16:16:43.282Z,93.46
2023-01-12T16:19:24.665Z,93.80
2023-01-12T16:22:03.291Z,94.08
2023-01-12T16:24:33.154Z,94.16
2023-01-12T16:27:02.252Z,94.35
2023-01-12T16:29:31.244Z,95.10
2023-01-12T16:32:00.360Z,95.62
2023-01-12T16:34:29.187Z,95.66
2023-01-12T16:37:00.581Z,95.92
2023-01-12T16:39:30.383Z,96.35
2023-01-12T16:42:05.732Z,96.86
2023-01-12T16:44:39.268Z,96.83
2023-01-12T16:47:13.114Z,96.99
2023-01-12T16:49:42.344Z,97.71
2023-01-12T16:52:15.766Z,98.24
2023-01-12T16:54:45.200Z,98.47
2023-01-12T16:57:16.637Z,98.31
2023-01-12T16:59:45.808Z,98.53
2023-01-12T17:02:16.264Z,98.49
2023-01-12T17:04:45.991Z,98.63
2023-01-12T17:07:15.775Z,98.99
2023-01-12T17:09:44.876Z,99.22
2023-01-12T17:12:13.883Z,99.09
2023-01-12T17:15:16.192Z,99.17
2023-01-12T17:17:54.289Z,99.45
2023-01-12T17:20:28.809Z,99.70
2023-01-12T17:23:26.256Z,99.87
2023-01-12T17:26:42.634Z,99.71
2023-01-12T17:29:12.941Z,99.76
2023-01-12T17:31:42.311Z,99.97
2023-01-12T17:34:13.213Z,100.00
2023-01-12T17:36:43.281Z,100.00
2023-01-12T17:39:14.863Z,100.00
2023-01-12T17:42:04.852Z,99.98
2023-01-12T17:44:34.267Z,99.98
2023-01-12T17:47:03.015Z,100.00
2023-01-12T17:49:31.671Z,100.00
2023-01-12T17:52:01.989Z,100.00
2023-01-12T17:54:31.446Z,100.00
2023-01-12T17:57:01.368Z,100.00
2023-01-12T17:59:30.062Z,100.00
2023-01-12T18:02:00.540Z,100.00
2023-01-12T18:04:32.661Z,100.00
2023-01-12T18:07:01.691Z,100.00
2023-01-12T18:09:31.716Z,100.00
2023-01-12T18:12:00.906Z,100.00
2023-01-12T18:14:29.751Z,100.00
2023-01-12T18:21:17.929Z,100.00
2023-01-12T18:23:58.266Z,100.00
2023-01-12T18:26:38.963Z,99.92
2023-01-12T18:29:14.554Z,99.78
2023-01-12T18:31:48.504Z,99.67
2023-01-12T18:34:24.636Z,99.61
2023-01-12T18:36:55.975Z,99.51
2023-01-12T18:39:31.205Z,99.47
2023-01-12T18:42:25.266Z,99.33
2023-01-12T18:45:03.800Z,99.16
2023-01-12T18:47:53.966Z,98.77
2023-01-12T18:50:43.303Z,98.62
2023-01-12T18:53:32.713Z,98.69
2023-01-12T18:56:09.412Z,98.56
2023-01-12T18:58:44.280Z,98.32
2023-01-12T19:01:27.635Z,98.08
2023-01-12T19:04:04.277Z,97.72
2023-01-12T19:06:48.906Z,97.74
2023-01-12T19:09:36.815Z,97.78
2023-01-12T19:12:08.923Z,97.42
2023-01-12T19:15:01.567Z,97.34
2023-01-12T19:23:48.259Z,97.13
2023-01-12T19:26:38.759Z,96.75
2023-01-12T19:29:10.971Z,96.96
2023-01-12T19:31:40.096Z,96.82
2023-01-12T19:34:09.973Z,96.96
2023-01-12T19:36:39.335Z,96.79
2023-01-12T19:39:09.878Z,96.54
2023-01-12T19:42:00.255Z,96.48
2023-01-12T19:44:29.867Z,96.37
2023-01-12T19:46:59.580Z,96.24
2023-01-12T19:49:28.371Z,96.21
2023-01-12T19:51:57.729Z,96.28
2023-01-12T19:54:29.524Z,95.81
2023-01-12T19:56:58.712Z,95.56
2023-01-12T19:59:51.316Z,95.04
2023-01-12T20:02:34.521Z,94.88
2023-01-12T20:05:03.510Z,94.66
2023-01-12T20:07:32.249Z,94.54
2023-01-12T20:10:00.908Z,94.36
2023-01-12T20:12:30.457Z,93.88
2023-01-12T20:14:58.893Z,93.66
2023-01-12T20:17:28.133Z,93.43
2023-01-12T20:19:56.825Z,93.32
2023-01-12T20:22:25.507Z,93.16
2023-01-12T20:24:54.037Z,93.02
2023-01-12T20:27:24.425Z,93.14
2023-01-12T20:29:56.793Z,92.82
2023-01-12T20:32:31.913Z,92.37
2023-01-12T20:35:06.217Z,92.52
2023-01-12T20:37:38.809Z,92.43
2023-01-12T20:40:24.085Z,92.23
2023-01-12T20:42:59.759Z,92.21
2023-01-12T20:45:28.486Z,91.98
2023-01-12T20:47:57.188Z,92.06
2023-01-12T20:50:25.939Z,91.81
2023-01-12T20:52:55.579Z,91.74
2023-01-12T20:55:23.974Z,91.45
2023-01-12T20:57:53.171Z,91.21
2023-01-12T21:00:21.816Z,91.16
2023-01-12T21:03:01.006Z,91.18
2023-01-12T21:05:35.582Z,91.19
2023-01-12T21:08:08.375Z,91.24
2023-01-12T21:10:41.338Z,91.09
2023-01-12T21:13:11.133Z,91.11
2023-01-12T21:15:42.551Z,90.79
2023-01-12T21:18:14.026Z,90.84
2023-01-12T21:20:44.773Z,90.81
2023-01-12T21:23:16.967Z,90.59
2023-01-12T21:25:47.272Z,90.92
2023-01-12T21:28:18.023Z,90.75
2023-01-12T21:30:49.009Z,90.71
2023-01-12T21:33:18.242Z,90.63
2023-01-12T21:35:56.803Z,90.64
2023-01-12T21:38:30.878Z,90.64
2023-01-12T21:41:11.280Z,90.49
2023-01-12T21:43:41.398Z,90.50
2023-01-12T21:46:12.117Z,90.30
2023-01-12T21:48:41.881Z,90.40
2023-01-12T21:51:14.569Z,90.18
2023-01-12T21:53:45.591Z,90.28
2023-01-12T21:56:15.691Z,90.24
2023-01-12T21:58:46.613Z,89.85
2023-01-12T22:01:16.811Z,89.94
2023-01-12T22:03:47.604Z,90.01
2023-01-12T22:06:20.455Z,90.16
2023-01-12T22:08:50.618Z,89.99
2023-01-12T22:11:21.254Z,89.89
2023-01-12T22:13:51.687Z,89.78
2023-01-12T22:16:22.438Z,89.61
2023-01-12T22:18:54.234Z,89.57
2023-01-12T22:21:24.891Z,89.31
2023-01-12T22:23:56.587Z,89.42
2023-01-12T22:26:29.234Z,89.75
2023-01-12T22:28:59.039Z,89.36
2023-01-12T22:31:32.963Z,89.10
2023-01-12T22:34:07.221Z,89.40
2023-01-12T22:36:55.319Z,89.31
2023-01-12T22:39:25.033Z,89.15
2023-01-12T22:41:58.016Z,89.09
2023-01-12T22:44:27.279Z,89.13
2023-01-12T22:46:56.247Z,89.13
2023-01-12T22:49:25.471Z,89.05
2023-01-12T22:51:54.618Z,89.23
2023-01-12T22:54:23.774Z,89.22
2023-01-12T22:56:52.466Z,89.12
2023-01-12T22:59:21.838Z,89.31
2023-01-12T23:01:51.457Z,89.35
2023-01-12T23:04:20.781Z,89.27
2023-01-12T23:06:49.584Z,89.28
2023-01-12T23:09:18.710Z,89.12
2023-01-12T23:11:47.484Z,89.27
2023-01-12T23:14:16.880Z,89.26
2023-01-12T23:16:45.664Z,89.35
2023-01-12T23:19:14.527Z,89.38
2023-01-12T23:21:44.234Z,89.47
2023-01-12T23:24:13.274Z,89.62
2023-01-12T23:26:42.487Z,89.76
2023-01-12T23:29:11.276Z,89.83
2023-01-12T23:31:40.232Z,89.75
2023-01-12T23:34:09.130Z,89.83
2023-01-12T23:36:38.362Z,90.02
2023-01-12T23:39:09.551Z,90.18
2023-01-12T23:41:39.026Z,90.21
2023-01-12T23:44:10.369Z,90.48
2023-01-12T23:46:41.013Z,90.17
2023-01-12T23:49:10.350Z,90.37
2023-01-12T23:51:38.845Z,90.14
2023-01-12T23:54:07.932Z,90.39
2023-01-12T23:56:36.556Z,90.24
2023-01-12T23:59:04.971Z,90.28
